sensor_id;sensor_type;location;lat;lon;timestamp;P1;durP1;ratioP1;P2;durP2;ratioP2
39256;SDS011;67272;48.066;11.038;2023-04-24T00:02:17;1.13;;;0.93;;
39256;SDS011;67272;48.066;11.038;2023-04-24T00:04:44;0.80;;;0.80;;
39256;SDS011;67272;48.066;11.038;2023-04-24T00:07:14;1.07;;;0.97;;
39256;SDS011;67272;48.066;11.038;2023-04-24T00:09:42;0.83;;;0.83;;
39256;SDS011;67272;48.066;11.038;2023-04-24T00:12:09;0.83;;;0.83;;
39256;SDS011;67272;48.066;11.038;2023-04-24T00:14:36;0.70;;;0.70;;
39256;SDS011;67272;48.066;11.038;2023-04-24T00:17:02;0.70;;;0.70;;
39256;SDS011;67272;48.066;11.038;2023-04-24T00:19:28;0.70;;;0.60;;
39256;SDS011;67272;48.066;11.038;2023-04-24T00:21:55;0.83;;;0.80;;
39256;SDS011;67272;48.066;11.038;2023-04-24T00:24:21;0.70;;;0.70;;
39256;SDS011;67272;48.066;11.038;2023-04-24T00:26:48;0.63;;;0.63;;
39256;SDS011;67272;48.066;11.038;2023-04-24T00:29:14;0.80;;;0.80;;
39256;SDS011;67272;48.066;11.038;2023-04-24T00:31:43;0.80;;;0.80;;
39256;SDS011;67272;48.066;11.038;2023-04-24T00:34:15;0.80;;;0.80;;
39256;SDS011;67272;48.066;11.038;2023-04-24T00:36:45;0.93;;;0.87;;
39256;SDS011;67272;48.066;11.038;2023-04-24T00:39:11;0.93;;;0.87;;
39256;SDS011;67272;48.066;11.038;2023-04-24T00:41:43;0.90;;;0.90;;
39256;SDS011;67272;48.066;11.038;2023-04-24T00:44:10;0.77;;;0.77;;
39256;SDS011;67272;48.066;11.038;2023-04-24T00:46:37;0.67;;;0.67;;
39256;SDS011;67272;48.066;11.038;2023-04-24T00:49:04;0.80;;;0.80;;
39256;SDS011;67272;48.066;11.038;2023-04-24T00:51:31;0.70;;;0.70;;
39256;SDS011;67272;48.066;11.038;2023-04-24T00:54:01;1.07;;;1.00;;
39256;SDS011;67272;48.066;11.038;2023-04-24T00:56:27;0.70;;;0.70;;
39256;SDS011;67272;48.066;11.038;2023-04-24T00:58:54;0.70;;;0.70;;
39256;SDS011;67272;48.066;11.038;2023-04-24T01:01:21;1.20;;;0.90;;
39256;SDS011;67272;48.066;11.038;2023-04-24T01:03:51;0.60;;;0.60;;
39256;SDS011;67272;48.066;11.038;2023-04-24T01:06:19;0.80;;;0.80;;
39256;SDS011;67272;48.066;11.038;2023-04-24T01:08:45;0.73;;;0.70;;
39256;SDS011;67272;48.066;11.038;2023-04-24T01:11:12;1.00;;;0.80;;
39256;SDS011;67272;48.066;11.038;2023-04-24T01:13:42;0.87;;;0.77;;
39256;SDS011;67272;48.066;11.038;2023-04-24T01:16:09;0.73;;;0.73;;
39256;SDS011;67272;48.066;11.038;2023-04-24T01:18:35;0.80;;;0.80;;
39256;SDS011;67272;48.066;11.038;2023-04-24T01:21:03;0.90;;;0.90;;
39256;SDS011;67272;48.066;11.038;2023-04-24T01:23:30;1.30;;;0.90;;
39256;SDS011;67272;48.066;11.038;2023-04-24T01:25:56;0.90;;;0.90;;
39256;SDS011;67272;48.066;11.038;2023-04-24T01:28:24;0.70;;;0.70;;
39256;SDS011;67272;48.066;11.038;2023-04-24T01:30:51;0.83;;;0.80;;
39256;SDS011;67272;48.066;11.038;2023-04-24T01:33:22;1.10;;;0.60;;
39256;SDS011;67272;48.066;11.038;2023-04-24T01:35:48;0.60;;;0.60;;
39256;SDS011;67272;48.066;11.038;2023-04-24T01:38:15;1.60;;;0.80;;
39256;SDS011;67272;48.066;11.038;2023-04-24T01:40:42;0.70;;;0.70;;
39256;SDS011;67272;48.066;11.038;2023-04-24T01:43:08;0.90;;;0.70;;
39256;SDS011;67272;48.066;11.038;2023-04-24T01:45:35;0.80;;;0.80;;
39256;SDS011;67272;48.066;11.038;2023-04-24T01:48:03;0.80;;;0.80;;
39256;SDS011;67272;48.066;11.038;2023-04-24T01:50:29;1.07;;;0.80;;
39256;SDS011;67272;48.066;11.038;2023-04-24T01:52:58;1.57;;;0.80;;
39256;SDS011;67272;48.066;11.038;2023-04-24T01:55:25;0.70;;;0.70;;
39256;SDS011;67272;48.066;11.038;2023-04-24T01:57:55;1.00;;;0.87;;
39256;SDS011;67272;48.066;11.038;2023-04-24T02:00:22;0.67;;;0.67;;
39256;SDS011;67272;48.066;11.038;2023-04-24T02:02:58;1.23;;;0.80;;
39256;SDS011;67272;48.066;11.038;2023-04-24T02:05:28;1.00;;;0.90;;
39256;SDS011;67272;48.066;11.038;2023-04-24T02:07:55;0.70;;;0.70;;
39256;SDS011;67272;48.066;11.038;2023-04-24T02:10:21;0.77;;;0.77;;
39256;SDS011;67272;48.066;11.038;2023-04-24T02:12:57;1.07;;;0.70;;
39256;SDS011;67272;48.066;11.038;2023-04-24T02:15:24;0.80;;;0.80;;
39256;SDS011;67272;48.066;11.038;2023-04-24T02:17:51;0.77;;;0.77;;
39256;SDS011;67272;48.066;11.038;2023-04-24T02:20:26;0.83;;;0.70;;
39256;SDS011;67272;48.066;11.038;2023-04-24T02:22:58;1.23;;;0.80;;
39256;SDS011;67272;48.066;11.038;2023-04-24T02:25:25;1.37;;;0.80;;
39256;SDS011;67272;48.066;11.038;2023-04-24T02:27:57;1.13;;;0.90;;
39256;SDS011;67272;48.066;11.038;2023-04-24T02:30:25;0.77;;;0.70;;
39256;SDS011;67272;48.066;11.038;2023-04-24T02:32:51;0.73;;;0.70;;
39256;SDS011;67272;48.066;11.038;2023-04-24T02:35:21;0.77;;;0.77;;
39256;SDS011;67272;48.066;11.038;2023-04-24T02:37:48;1.63;;;0.90;;
39256;SDS011;67272;48.066;11.038;2023-04-24T02:40:14;0.73;;;0.73;;
39256;SDS011;67272;48.066;11.038;2023-04-24T02:42:40;1.13;;;0.80;;
39256;SDS011;67272;48.066;11.038;2023-04-24T02:45:10;0.80;;;0.80;;
39256;SDS011;67272;48.066;11.038;2023-04-24T02:47:36;1.10;;;1.00;;
39256;SDS011;67272;48.066;11.038;2023-04-24T02:50:03;1.13;;;0.73;;
39256;SDS011;67272;48.066;11.038;2023-04-24T02:52:30;1.00;;;0.80;;
39256;SDS011;67272;48.066;11.038;2023-04-24T02:54:56;1.07;;;0.80;;
39256;SDS011;67272;48.066;11.038;2023-04-24T02:57:22;1.00;;;0.90;;
39256;SDS011;67272;48.066;11.038;2023-04-24T02:59:49;0.80;;;0.80;;
39256;SDS011;67272;48.066;11.038;2023-04-24T03:02:15;1.67;;;1.13;;
39256;SDS011;67272;48.066;11.038;2023-04-24T03:04:42;0.90;;;0.90;;
39256;SDS011;67272;48.066;11.038;2023-04-24T03:07:08;1.13;;;0.83;;
39256;SDS011;67272;48.066;11.038;2023-04-24T03:09:36;1.07;;;1.07;;
39256;SDS011;67272;48.066;11.038;2023-04-24T03:12:02;1.03;;;0.80;;
39256;SDS011;67272;48.066;11.038;2023-04-24T03:14:29;1.00;;;0.90;;
39256;SDS011;67272;48.066;11.038;2023-04-24T03:16:59;1.10;;;1.00;;
39256;SDS011;67272;48.066;11.038;2023-04-24T03:19:25;0.93;;;0.83;;
39256;SDS011;67272;48.066;11.038;2023-04-24T03:22:02;0.73;;;0.73;;
39256;SDS011;67272;48.066;11.038;2023-04-24T03:24:29;0.97;;;0.80;;
39256;SDS011;67272;48.066;11.038;2023-04-24T03:26:56;1.17;;;0.70;;
39256;SDS011;67272;48.066;11.038;2023-04-24T03:29:41;1.50;;;0.87;;
39256;SDS011;67272;48.066;11.038;2023-04-24T03:32:07;0.90;;;0.90;;
39256;SDS011;67272;48.066;11.038;2023-04-24T03:34:35;1.10;;;1.00;;
39256;SDS011;67272;48.066;11.038;2023-04-24T03:37:02;1.17;;;1.07;;
39256;SDS011;67272;48.066;11.038;2023-04-24T03:39:30;0.80;;;0.80;;
39256;SDS011;67272;48.066;11.038;2023-04-24T03:41:56;0.87;;;0.70;;
39256;SDS011;67272;48.066;11.038;2023-04-24T03:44:31;0.80;;;0.80;;
39256;SDS011;67272;48.066;11.038;2023-04-24T03:46:58;1.53;;;1.00;;
39256;SDS011;67272;48.066;11.038;2023-04-24T03:49:24;1.53;;;0.87;;
39256;SDS011;67272;48.066;11.038;2023-04-24T03:51:51;0.57;;;0.57;;
39256;SDS011;67272;48.066;11.038;2023-04-24T03:54:22;0.70;;;0.70;;
39256;SDS011;67272;48.066;11.038;2023-04-24T03:56:50;0.80;;;0.80;;
39256;SDS011;67272;48.066;11.038;2023-04-24T03:59:17;0.80;;;0.80;;
39256;SDS011;67272;48.066;11.038;2023-04-24T04:01:48;0.90;;;0.90;;
39256;SDS011;67272;48.066;11.038;2023-04-24T04:04:19;0.93;;;0.83;;
39256;SDS011;67272;48.066;11.038;2023-04-24T04:06:48;1.10;;;0.80;;
39256;SDS011;67272;48.066;11.038;2023-04-24T04:09:15;1.00;;;0.83;;
39256;SDS011;67272;48.066;11.038;2023-04-24T04:11:41;0.60;;;0.60;;
39256;SDS011;67272;48.066;11.038;2023-04-24T04:14:11;0.70;;;0.70;;
39256;SDS011;67272;48.066;11.038;2023-04-24T04:16:40;0.90;;;0.70;;
39256;SDS011;67272;48.066;11.038;2023-04-24T04:19:16;0.60;;;0.60;;
39256;SDS011;67272;48.066;11.038;2023-04-24T04:21:42;0.73;;;0.70;;
39256;SDS011;67272;48.066;11.038;2023-04-24T04:24:36;1.00;;;0.90;;
39256;SDS011;67272;48.066;11.038;2023-04-24T04:27:07;1.00;;;0.90;;
39256;SDS011;67272;48.066;11.038;2023-04-24T04:29:53;1.17;;;0.80;;
39256;SDS011;67272;48.066;11.038;2023-04-24T04:32:22;0.70;;;0.70;;
39256;SDS011;67272;48.066;11.038;2023-04-24T04:34:48;0.80;;;0.77;;
39256;SDS011;67272;48.066;11.038;2023-04-24T04:37:29;0.70;;;0.70;;
39256;SDS011;67272;48.066;11.038;2023-04-24T04:40:11;0.77;;;0.60;;
39256;SDS011;67272;48.066;11.038;2023-04-24T04:42:45;0.70;;;0.70;;
39256;SDS011;67272;48.066;11.038;2023-04-24T04:45:16;0.73;;;0.73;;
39256;SDS011;67272;48.066;11.038;2023-04-24T04:48:19;0.70;;;0.70;;
39256;SDS011;67272;48.066;11.038;2023-04-24T04:50:45;0.70;;;0.70;;
39256;SDS011;67272;48.066;11.038;2023-04-24T04:53:15;0.70;;;0.70;;
39256;SDS011;67272;48.066;11.038;2023-04-24T04:55:42;1.30;;;0.80;;
39256;SDS011;67272;48.066;11.038;2023-04-24T04:58:13;0.60;;;0.60;;
39256;SDS011;67272;48.066;11.038;2023-04-24T05:00:40;0.70;;;0.70;;
39256;SDS011;67272;48.066;11.038;2023-04-24T05:03:19;0.80;;;0.80;;
39256;SDS011;67272;48.066;11.038;2023-04-24T05:05:46;0.60;;;0.60;;
39256;SDS011;67272;48.066;11.038;2023-04-24T05:08:14;0.73;;;0.73;;
39256;SDS011;67272;48.066;11.038;2023-04-24T05:10:41;0.60;;;0.60;;
39256;SDS011;67272;48.066;11.038;2023-04-24T05:13:08;0.80;;;0.70;;
39256;SDS011;67272;48.066;11.038;2023-04-24T05:15:35;0.87;;;0.70;;
39256;SDS011;67272;48.066;11.038;2023-04-24T05:18:01;1.47;;;0.80;;
39256;SDS011;67272;48.066;11.038;2023-04-24T05:20:28;0.77;;;0.77;;
39256;SDS011;67272;48.066;11.038;2023-04-24T05:22:54;1.13;;;0.83;;
39256;SDS011;67272;48.066;11.038;2023-04-24T05:25:22;0.80;;;0.70;;
39256;SDS011;67272;48.066;11.038;2023-04-24T05:27:59;0.80;;;0.70;;
39256;SDS011;67272;48.066;11.038;2023-04-24T05:30:32;1.13;;;0.60;;
39256;SDS011;67272;48.066;11.038;2023-04-24T05:33:01;0.70;;;0.60;;
39256;SDS011;67272;48.066;11.038;2023-04-24T05:35:29;0.70;;;0.70;;
39256;SDS011;67272;48.066;11.038;2023-04-24T05:37:56;0.93;;;0.70;;
39256;SDS011;67272;48.066;11.038;2023-04-24T05:40:25;0.80;;;0.80;;
39256;SDS011;67272;48.066;11.038;2023-04-24T05:42:51;0.60;;;0.60;;
39256;SDS011;67272;48.066;11.038;2023-04-24T05:45:19;0.60;;;0.60;;
39256;SDS011;67272;48.066;11.038;2023-04-24T05:47:46;0.60;;;0.60;;
39256;SDS011;67272;48.066;11.038;2023-04-24T05:50:13;0.60;;;0.60;;
39256;SDS011;67272;48.066;11.038;2023-04-24T05:52:40;0.83;;;0.70;;
39256;SDS011;67272;48.066;11.038;2023-04-24T05:55:19;0.60;;;0.60;;
39256;SDS011;67272;48.066;11.038;2023-04-24T05:57:46;0.60;;;0.60;;
39256;SDS011;67272;48.066;11.038;2023-04-24T06:00:15;0.70;;;0.70;;
39256;SDS011;67272;48.066;11.038;2023-04-24T06:02:49;0.60;;;0.60;;
39256;SDS011;67272;48.066;11.038;2023-04-24T06:05:16;0.60;;;0.60;;
39256;SDS011;67272;48.066;11.038;2023-04-24T06:07:43;0.60;;;0.60;;
39256;SDS011;67272;48.066;11.038;2023-04-24T06:10:10;1.43;;;0.60;;
39256;SDS011;67272;48.066;11.038;2023-04-24T06:12:41;0.80;;;0.80;;
39256;SDS011;67272;48.066;11.038;2023-04-24T06:15:15;0.67;;;0.67;;
39256;SDS011;67272;48.066;11.038;2023-04-24T06:17:54;0.70;;;0.70;;
39256;SDS011;67272;48.066;11.038;2023-04-24T06:20:21;0.53;;;0.53;;
39256;SDS011;67272;48.066;11.038;2023-04-24T06:22:47;1.07;;;0.70;;
39256;SDS011;67272;48.066;11.038;2023-04-24T06:25:14;1.30;;;0.70;;
39256;SDS011;67272;48.066;11.038;2023-04-24T06:27:40;0.60;;;0.60;;
39256;SDS011;67272;48.066;11.038;2023-04-24T06:30:07;0.60;;;0.60;;
39256;SDS011;67272;48.066;11.038;2023-04-24T06:32:33;1.43;;;0.90;;
39256;SDS011;67272;48.066;11.038;2023-04-24T06:35:00;0.60;;;0.60;;
39256;SDS011;67272;48.066;11.038;2023-04-24T06:37:26;0.67;;;0.67;;
39256;SDS011;67272;48.066;11.038;2023-04-24T06:39:53;1.33;;;0.70;;
39256;SDS011;67272;48.066;11.038;2023-04-24T06:42:19;0.80;;;0.80;;
39256;SDS011;67272;48.066;11.038;2023-04-24T06:44:50;0.60;;;0.60;;
39256;SDS011;67272;48.066;11.038;2023-04-24T06:47:16;2.20;;;0.70;;
39256;SDS011;67272;48.066;11.038;2023-04-24T06:49:43;1.07;;;1.00;;
39256;SDS011;67272;48.066;11.038;2023-04-24T06:52:10;1.50;;;1.40;;
39256;SDS011;67272;48.066;11.038;2023-04-24T06:54:36;1.30;;;1.20;;
39256;SDS011;67272;48.066;11.038;2023-04-24T06:57:02;0.70;;;0.70;;
39256;SDS011;67272;48.066;11.038;2023-04-24T06:59:29;1.60;;;0.80;;
39256;SDS011;67272;48.066;11.038;2023-04-24T07:01:56;0.73;;;0.73;;
39256;SDS011;67272;48.066;11.038;2023-04-24T07:04:22;0.80;;;0.80;;
39256;SDS011;67272;48.066;11.038;2023-04-24T07:06:50;0.60;;;0.60;;
39256;SDS011;67272;48.066;11.038;2023-04-24T07:09:16;1.93;;;0.80;;
39256;SDS011;67272;48.066;11.038;2023-04-24T07:11:47;0.67;;;0.67;;
39256;SDS011;67272;48.066;11.038;2023-04-24T07:14:13;1.00;;;0.90;;
39256;SDS011;67272;48.066;11.038;2023-04-24T07:16:40;0.70;;;0.70;;
39256;SDS011;67272;48.066;11.038;2023-04-24T07:19:06;0.80;;;0.80;;
39256;SDS011;67272;48.066;11.038;2023-04-24T07:21:32;0.70;;;0.70;;
39256;SDS011;67272;48.066;11.038;2023-04-24T07:23:59;0.67;;;0.67;;
39256;SDS011;67272;48.066;11.038;2023-04-24T07:26:26;0.70;;;0.70;;
39256;SDS011;67272;48.066;11.038;2023-04-24T07:28:52;0.60;;;0.60;;
39256;SDS011;67272;48.066;11.038;2023-04-24T07:31:18;0.70;;;0.70;;
39256;SDS011;67272;48.066;11.038;2023-04-24T07:33:45;0.80;;;0.80;;
39256;SDS011;67272;48.066;11.038;2023-04-24T07:36:11;0.60;;;0.60;;
39256;SDS011;67272;48.066;11.038;2023-04-24T07:38:44;0.80;;;0.80;;
39256;SDS011;67272;48.066;11.038;2023-04-24T07:41:11;1.13;;;0.90;;
39256;SDS011;67272;48.066;11.038;2023-04-24T07:43:40;0.70;;;0.70;;
39256;SDS011;67272;48.066;11.038;2023-04-24T07:46:07;0.63;;;0.63;;
39256;SDS011;67272;48.066;11.038;2023-04-24T07:48:33;0.77;;;0.70;;
39256;SDS011;67272;48.066;11.038;2023-04-24T07:51:00;0.63;;;0.63;;
39256;SDS011;67272;48.066;11.038;2023-04-24T07:53:26;0.60;;;0.60;;
39256;SDS011;67272;48.066;11.038;2023-04-24T07:55:53;1.00;;;0.90;;
39256;SDS011;67272;48.066;11.038;2023-04-24T07:58:20;0.90;;;0.90;;
39256;SDS011;67272;48.066;11.038;2023-04-24T08:00:47;1.43;;;1.10;;
39256;SDS011;67272;48.066;11.038;2023-04-24T08:03:16;1.20;;;1.10;;
39256;SDS011;67272;48.066;11.038;2023-04-24T08:05:44;1.30;;;1.20;;
39256;SDS011;67272;48.066;11.038;2023-04-24T08:08:11;2.10;;;1.40;;
39256;SDS011;67272;48.066;11.038;2023-04-24T08:10:37;1.60;;;1.50;;
39256;SDS011;67272;48.066;11.038;2023-04-24T08:13:03;1.50;;;1.30;;
39256;SDS011;67272;48.066;11.038;2023-04-24T08:15:29;1.70;;;1.60;;
39256;SDS011;67272;48.066;11.038;2023-04-24T08:17:55;2.17;;;1.27;;
39256;SDS011;67272;48.066;11.038;2023-04-24T08:20:21;1.10;;;1.00;;
39256;SDS011;67272;48.066;11.038;2023-04-24T08:22:47;1.27;;;1.17;;
39256;SDS011;67272;48.066;11.038;2023-04-24T08:25:14;1.40;;;1.30;;
39256;SDS011;67272;48.066;11.038;2023-04-24T08:27:40;1.50;;;1.40;;
39256;SDS011;67272;48.066;11.038;2023-04-24T08:30:06;1.60;;;1.50;;
39256;SDS011;67272;48.066;11.038;2023-04-24T08:32:33;1.57;;;1.37;;
39256;SDS011;67272;48.066;11.038;2023-04-24T08:34:59;1.40;;;1.30;;
39256;SDS011;67272;48.066;11.038;2023-04-24T08:37:26;2.20;;;1.50;;
39256;SDS011;67272;48.066;11.038;2023-04-24T08:39:53;1.40;;;1.30;;
39256;SDS011;67272;48.066;11.038;2023-04-24T08:42:20;1.50;;;1.40;;
39256;SDS011;67272;48.066;11.038;2023-04-24T08:44:47;1.60;;;1.50;;
39256;SDS011;67272;48.066;11.038;2023-04-24T08:47:14;1.57;;;1.47;;
39256;SDS011;67272;48.066;11.038;2023-04-24T08:49:41;1.50;;;1.40;;
39256;SDS011;67272;48.066;11.038;2023-04-24T08:52:07;1.60;;;1.50;;
39256;SDS011;67272;48.066;11.038;2023-04-24T08:54:34;2.00;;;1.50;;
39256;SDS011;67272;48.066;11.038;2023-04-24T08:57:01;1.60;;;1.43;;
39256;SDS011;67272;48.066;11.038;2023-04-24T08:59:29;1.60;;;1.50;;
39256;SDS011;67272;48.066;11.038;2023-04-24T09:01:55;1.40;;;1.30;;
39256;SDS011;67272;48.066;11.038;2023-04-24T09:04:22;1.40;;;1.30;;
39256;SDS011;67272;48.066;11.038;2023-04-24T09:06:50;1.20;;;1.17;;
39256;SDS011;67272;48.066;11.038;2023-04-24T09:09:17;1.20;;;1.10;;
39256;SDS011;67272;48.066;11.038;2023-04-24T09:11:44;1.40;;;1.30;;
39256;SDS011;67272;48.066;11.038;2023-04-24T09:14:10;1.30;;;1.20;;
39256;SDS011;67272;48.066;11.038;2023-04-24T09:16:36;1.42;;;1.33;;
39256;SDS011;67272;48.066;11.038;2023-04-24T09:19:03;1.42;;;1.30;;
39256;SDS011;67272;48.066;11.038;2023-04-24T09:21:33;1.95;;;1.40;;
39256;SDS011;67272;48.066;11.038;2023-04-24T09:24:00;1.73;;;1.58;;
39256;SDS011;67272;48.066;11.038;2023-04-24T09:26:31;1.67;;;1.35;;
39256;SDS011;67272;48.066;11.038;2023-04-24T09:29:00;1.50;;;1.40;;
39256;SDS011;67272;48.066;11.038;2023-04-24T09:31:27;2.15;;;1.25;;
39256;SDS011;67272;48.066;11.038;2023-04-24T09:33:54;1.35;;;1.25;;
39256;SDS011;67272;48.066;11.038;2023-04-24T09:36:54;2.17;;;1.38;;
39256;SDS011;67272;48.066;11.038;2023-04-24T09:39:14;1.20;;;1.10;;
39256;SDS011;67272;48.066;11.038;2023-04-24T09:41:44;1.50;;;1.40;;
39256;SDS011;67272;48.066;11.038;2023-04-24T09:44:18;1.60;;;1.50;;
39256;SDS011;67272;48.066;11.038;2023-04-24T09:46:58;1.58;;;1.48;;
39256;SDS011;67272;48.066;11.038;2023-04-24T09:49:27;1.60;;;1.50;;
39256;SDS011;67272;48.066;11.038;2023-04-24T09:52:07;1.60;;;1.40;;
39256;SDS011;67272;48.066;11.038;2023-04-24T09:54:33;1.50;;;1.40;;
39256;SDS011;67272;48.066;11.038;2023-04-24T09:57:01;1.40;;;1.30;;
39256;SDS011;67272;48.066;11.038;2023-04-24T09:59:29;1.70;;;1.50;;
39256;SDS011;67272;48.066;11.038;2023-04-24T10:01:55;1.40;;;1.30;;
39256;SDS011;67272;48.066;11.038;2023-04-24T10:04:28;1.52;;;1.42;;
39256;SDS011;67272;48.066;11.038;2023-04-24T10:06:55;1.40;;;1.30;;
39256;SDS011;67272;48.066;11.038;2023-04-24T10:09:25;2.28;;;1.45;;
39256;SDS011;67272;48.066;11.038;2023-04-24T10:11:52;2.05;;;1.02;;
39256;SDS011;67272;48.066;11.038;2023-04-24T10:14:22;1.00;;;0.80;;
39256;SDS011;67272;48.066;11.038;2023-04-24T10:16:49;0.97;;;0.80;;
39256;SDS011;67272;48.066;11.038;2023-04-24T10:19:16;0.90;;;0.90;;
39256;SDS011;67272;48.066;11.038;2023-04-24T10:21:46;1.20;;;1.10;;
39256;SDS011;67272;48.066;11.038;2023-04-24T10:24:16;2.00;;;1.20;;
39256;SDS011;67272;48.066;11.038;2023-04-24T10:26:43;3.23;;;0.90;;
39256;SDS011;67272;48.066;11.038;2023-04-24T10:29:10;4.90;;;1.30;;
39256;SDS011;67272;48.066;11.038;2023-04-24T10:31:37;0.83;;;0.83;;
39256;SDS011;67272;48.066;11.038;2023-04-24T10:34:04;0.93;;;0.82;;
39256;SDS011;67272;48.066;11.038;2023-04-24T10:36:31;2.13;;;0.85;;
39256;SDS011;67272;48.066;11.038;2023-04-24T10:38:59;1.02;;;0.90;;
39256;SDS011;67272;48.066;11.038;2023-04-24T10:41:25;0.80;;;0.80;;
39256;SDS011;67272;48.066;11.038;2023-04-24T10:46:32;0.80;;;0.80;;
39256;SDS011;67272;48.066;11.038;2023-04-24T10:48:58;0.90;;;0.90;;
39256;SDS011;67272;48.066;11.038;2023-04-24T10:51:44;1.10;;;1.00;;
39256;SDS011;67272;48.066;11.038;2023-04-24T10:54:54;1.20;;;1.10;;
39256;SDS011;67272;48.066;11.038;2023-04-24T11:02:36;1.20;;;1.10;;
39256;SDS011;67272;48.066;11.038;2023-04-24T11:05:03;1.15;;;1.08;;
39256;SDS011;67272;48.066;11.038;2023-04-24T11:10:25;1.30;;;1.20;;
39256;SDS011;67272;48.066;11.038;2023-04-24T11:12:51;1.42;;;1.33;;
39256;SDS011;67272;48.066;11.038;2023-04-24T11:15:18;1.67;;;1.30;;
39256;SDS011;67272;48.066;11.038;2023-04-24T11:17:45;1.73;;;1.35;;
39256;SDS011;67272;48.066;11.038;2023-04-24T11:20:17;1.48;;;1.38;;
39256;SDS011;67272;48.066;11.038;2023-04-24T11:22:43;1.30;;;1.20;;
39256;SDS011;67272;48.066;11.038;2023-04-24T11:25:09;1.40;;;1.30;;
39256;SDS011;67272;48.066;11.038;2023-04-24T11:27:41;1.30;;;1.20;;
39256;SDS011;67272;48.066;11.038;2023-04-24T11:30:07;1.20;;;1.10;;
39256;SDS011;67272;48.066;11.038;2023-04-24T11:37:43;1.40;;;1.30;;
39256;SDS011;67272;48.066;11.038;2023-04-24T11:40:14;1.55;;;1.45;;
39256;SDS011;67272;48.066;11.038;2023-04-24T11:42:45;1.30;;;1.20;;
39256;SDS011;67272;48.066;11.038;2023-04-24T11:45:12;1.50;;;1.40;;
39256;SDS011;67272;48.066;11.038;2023-04-24T11:47:39;1.50;;;1.20;;
39256;SDS011;67272;48.066;11.038;2023-04-24T11:50:07;1.30;;;1.20;;
39256;SDS011;67272;48.066;11.038;2023-04-24T11:52:36;1.27;;;1.13;;
39256;SDS011;67272;48.066;11.038;2023-04-24T11:55:06;1.50;;;1.40;;
39256;SDS011;67272;48.066;11.038;2023-04-24T11:57:32;1.35;;;1.13;;
39256;SDS011;67272;48.066;11.038;2023-04-24T12:00:00;1.40;;;1.30;;
39256;SDS011;67272;48.066;11.038;2023-04-24T12:02:37;1.50;;;1.40;;
39256;SDS011;67272;48.066;11.038;2023-04-24T12:05:03;1.25;;;1.20;;
39256;SDS011;67272;48.066;11.038;2023-04-24T12:07:29;1.50;;;1.40;;
39256;SDS011;67272;48.066;11.038;2023-04-24T12:10:07;1.60;;;1.50;;
39256;SDS011;67272;48.066;11.038;2023-04-24T12:12:34;1.30;;;1.20;;
39256;SDS011;67272;48.066;11.038;2023-04-24T12:15:00;2.13;;;1.30;;
39256;SDS011;67272;48.066;11.038;2023-04-24T12:17:30;2.70;;;1.40;;
39256;SDS011;67272;48.066;11.038;2023-04-24T12:20:00;1.50;;;1.40;;
39256;SDS011;67272;48.066;11.038;2023-04-24T12:22:27;1.00;;;0.90;;
39256;SDS011;67272;48.066;11.038;2023-04-24T12:27:23;1.10;;;1.10;;
39256;SDS011;67272;48.066;11.038;2023-04-24T12:29:55;1.35;;;1.23;;
39256;SDS011;67272;48.066;11.038;2023-04-24T12:32:22;2.75;;;1.20;;
39256;SDS011;67272;48.066;11.038;2023-04-24T12:34:52;1.20;;;1.10;;
39256;SDS011;67272;48.066;11.038;2023-04-24T12:37:18;1.00;;;1.00;;
39256;SDS011;67272;48.066;11.038;2023-04-24T12:40:06;1.30;;;1.20;;
39256;SDS011;67272;48.066;11.038;2023-04-24T12:42:33;1.25;;;1.15;;
39256;SDS011;67272;48.066;11.038;2023-04-24T12:45:04;1.27;;;1.17;;
39256;SDS011;67272;48.066;11.038;2023-04-24T12:47:31;6.75;;;1.20;;
39256;SDS011;67272;48.066;11.038;2023-04-24T12:49:57;1.30;;;1.20;;
39256;SDS011;67272;48.066;11.038;2023-04-24T12:52:24;1.60;;;1.17;;
39256;SDS011;67272;48.066;11.038;2023-04-24T12:54:54;1.60;;;1.10;;
39256;SDS011;67272;48.066;11.038;2023-04-24T12:57:21;1.83;;;1.20;;
39256;SDS011;67272;48.066;11.038;2023-04-24T12:59:47;1.30;;;1.20;;
39256;SDS011;67272;48.066;11.038;2023-04-24T13:02:13;1.40;;;1.30;;
39256;SDS011;67272;48.066;11.038;2023-04-24T13:04:43;3.17;;;1.50;;
39256;SDS011;67272;48.066;11.038;2023-04-24T13:07:10;1.67;;;1.52;;
39256;SDS011;67272;48.066;11.038;2023-04-24T13:09:36;1.55;;;1.45;;
39256;SDS011;67272;48.066;11.038;2023-04-24T13:12:02;2.15;;;1.45;;
39256;SDS011;67272;48.066;11.038;2023-04-24T13:14:30;1.90;;;1.40;;
39256;SDS011;67272;48.066;11.038;2023-04-24T13:16:56;1.40;;;1.30;;
39256;SDS011;67272;48.066;11.038;2023-04-24T13:19:26;1.20;;;1.10;;
39256;SDS011;67272;48.066;11.038;2023-04-24T13:21:56;1.17;;;1.10;;
39256;SDS011;67272;48.066;11.038;2023-04-24T13:24:24;1.40;;;1.30;;
39256;SDS011;67272;48.066;11.038;2023-04-24T13:26:51;3.47;;;1.40;;
39256;SDS011;67272;48.066;11.038;2023-04-24T13:29:17;1.40;;;1.30;;
39256;SDS011;67272;48.066;11.038;2023-04-24T13:31:43;1.30;;;1.20;;
39256;SDS011;67272;48.066;11.038;2023-04-24T13:34:09;2.15;;;1.38;;
39256;SDS011;67272;48.066;11.038;2023-04-24T13:36:35;3.67;;;1.50;;
39256;SDS011;67272;48.066;11.038;2023-04-24T13:39:02;1.30;;;1.20;;
39256;SDS011;67272;48.066;11.038;2023-04-24T13:41:29;1.30;;;1.17;;
39256;SDS011;67272;48.066;11.038;2023-04-24T13:43:56;2.90;;;1.40;;
39256;SDS011;67272;48.066;11.038;2023-04-24T13:46:22;1.40;;;1.30;;
39256;SDS011;67272;48.066;11.038;2023-04-24T13:48:48;1.50;;;1.40;;
39256;SDS011;67272;48.066;11.038;2023-04-24T13:51:14;1.42;;;1.33;;
39256;SDS011;67272;48.066;11.038;2023-04-24T13:53:40;1.58;;;1.48;;
39256;SDS011;67272;48.066;11.038;2023-04-24T13:56:07;1.52;;;1.42;;
39256;SDS011;67272;48.066;11.038;2023-04-24T13:58:34;1.77;;;1.20;;
39256;SDS011;67272;48.066;11.038;2023-04-24T14:01:03;1.40;;;1.25;;
39256;SDS011;67272;48.066;11.038;2023-04-24T14:03:30;1.42;;;1.33;;
39256;SDS011;67272;48.066;11.038;2023-04-24T14:05:56;3.17;;;1.50;;
39256;SDS011;67272;48.066;11.038;2023-04-24T14:08:22;3.85;;;1.58;;
39256;SDS011;67272;48.066;11.038;2023-04-24T14:10:49;1.60;;;1.50;;
39256;SDS011;67272;48.066;11.038;2023-04-24T14:13:16;1.60;;;1.38;;
39256;SDS011;67272;48.066;11.038;2023-04-24T14:15:42;1.55;;;1.45;;
39256;SDS011;67272;48.066;11.038;2023-04-24T14:18:08;4.03;;;1.30;;
39256;SDS011;67272;48.066;11.038;2023-04-24T14:20:35;3.03;;;1.77;;
39256;SDS011;67272;48.066;11.038;2023-04-24T14:23:01;2.03;;;1.38;;
39256;SDS011;67272;48.066;11.038;2023-04-24T14:25:28;1.90;;;1.70;;
39256;SDS011;67272;48.066;11.038;2023-04-24T14:27:55;1.90;;;1.75;;
39256;SDS011;67272;48.066;11.038;2023-04-24T14:30:21;4.80;;;1.67;;
39256;SDS011;67272;48.066;11.038;2023-04-24T14:32:47;1.73;;;1.52;;
39256;SDS011;67272;48.066;11.038;2023-04-24T14:35:14;1.60;;;1.40;;
39256;SDS011;67272;48.066;11.038;2023-04-24T14:37:40;2.65;;;1.17;;
39256;SDS011;67272;48.066;11.038;2023-04-24T14:40:07;2.00;;;1.40;;
39256;SDS011;67272;48.066;11.038;2023-04-24T14:42:33;1.50;;;1.40;;
39256;SDS011;67272;48.066;11.038;2023-04-24T14:45:00;2.05;;;1.60;;
39256;SDS011;67272;48.066;11.038;2023-04-24T14:47:27;1.50;;;1.40;;
39256;SDS011;67272;48.066;11.038;2023-04-24T14:49:54;1.70;;;1.50;;
39256;SDS011;67272;48.066;11.038;2023-04-24T14:52:20;1.60;;;1.50;;
39256;SDS011;67272;48.066;11.038;2023-04-24T14:54:47;1.60;;;1.50;;
39256;SDS011;67272;48.066;11.038;2023-04-24T14:57:13;1.50;;;1.40;;
39256;SDS011;67272;48.066;11.038;2023-04-24T14:59:39;1.48;;;1.38;;